Time;durP1;ratioP1;P1;durP2;ratioP2;P2;SDS_P1;SDS_P2;PMS_P1;PMS_P2;Temp;Humidity;BMP_temperature;BMP_pressure;BME280_temperature;BME280_humidity;BME280_pressure;Samples;Min_cycle;Max_cycle;Signal;HPM_P1;HPM_P2
2022/04/30 00:02:15;;;;;;;18.88;10.18;;;3.50;99.90;;;;;;5069341;28;20045;-43
2022/04/30 00:04:45;;;;;;;17.58;9.23;;;3.50;99.90;;;;;;5069095;28;20080;-43
2022/04/30 00:07:17;;;;;;;15.32;9.38;;;3.50;99.90;;;;;;5069598;28;20053;-43
2022/04/30 00:09:47;;;;;;;23.58;10.23;;;3.40;99.90;;;;;;5068827;28;20040;-43
2022/04/30 00:12:15;;;;;;;20.10;9.32;;;3.40;99.90;;;;;;5069185;28;20045;-44
2022/04/30 00:14:42;;;;;;;21.98;10.80;;;3.40;99.90;;;;;;5068679;28;20044;-42
2022/04/30 00:17:08;;;;;;;16.70;9.88;;;3.40;99.90;;;;;;5069448;28;20071;-43
2022/04/30 00:19:34;;;;;;;17.20;9.13;;;3.30;99.90;;;;;;5069040;28;20095;-42
2022/04/30 00:21:59;;;;;;;20.63;10.95;;;3.30;99.90;;;;;;5069593;28;20054;-42
2022/04/30 00:24:26;;;;;;;22.80;9.48;;;3.20;99.90;;;;;;5069060;28;20040;-43
2022/04/30 00:26:53;;;;;;;22.38;9.68;;;3.20;99.90;;;;;;5068591;28;20056;-43
2022/04/30 00:29:18;;;;;;;19.42;9.90;;;3.20;99.90;;;;;;5069119;28;20094;-42
2022/04/30 00:31:44;;;;;;;17.05;10.30;;;3.20;99.90;;;;;;5068358;28;20033;-42
2022/04/30 00:34:10;;;;;;;23.15;11.20;;;3.20;99.90;;;;;;5068760;28;20395;-42
2022/04/30 00:36:36;;;;;;;23.20;11.30;;;3.20;99.90;;;;;;5068700;28;20071;-42
2022/04/30 00:39:03;;;;;;;23.30;11.23;;;3.20;99.90;;;;;;5068366;28;20061;-42
2022/04/30 00:41:32;;;;;;;20.63;10.70;;;3.20;99.90;;;;;;5068318;28;20491;-43
2022/04/30 00:43:59;;;;;;;17.77;10.75;;;3.80;99.90;;;;;;5068848;28;20142;-43
2022/04/30 00:46:25;;;;;;;24.25;11.15;;;3.20;99.90;;;;;;5068880;28;20055;-42
2022/04/30 00:48:52;;;;;;;24.27;12.20;;;3.20;99.90;;;;;;5067850;28;20040;-42
2022/04/30 00:51:20;;;;;;;24.08;11.77;;;3.20;99.90;;;;;;5068407;28;20112;-43
2022/04/30 00:53:48;;;;;;;20.60;12.15;;;3.00;99.90;;;;;;5068189;28;20040;-42
2022/04/30 00:56:18;;;;;;;18.98;10.65;;;3.20;99.90;;;;;;5068904;28;20477;-43
2022/04/30 00:58:47;;;;;;;23.50;11.77;;;3.20;99.90;;;;;;5068276;28;20097;-42
2022/04/30 01:01:14;;;;;;;23.15;11.82;;;3.20;99.90;;;;;;5067971;28;20044;-42
2022/04/30 01:03:40;;;;;;;22.80;11.10;;;3.20;99.90;;;;;;5068132;28;20047;-43
2022/04/30 01:06:07;;;;;;;22.95;11.50;;;3.20;99.90;;;;;;5068773;28;20776;-43
2022/04/30 01:08:33;;;;;;;21.60;10.77;;;3.20;99.90;;;;;;5068507;28;20083;-42
2022/04/30 01:11:01;;;;;;;20.20;12.00;;;3.00;99.90;;;;;;5068659;28;20072;-42
2022/04/30 01:13:28;;;;;;;23.30;12.60;;;3.20;99.90;;;;;;5068565;28;20041;-42
2022/04/30 01:15:58;;;;;;;22.98;13.32;;;3.20;99.90;;;;;;5067990;28;20048;-42
2022/04/30 01:18:26;;;;;;;23.40;11.27;;;3.20;99.90;;;;;;5068484;28;20053;-42
2022/04/30 01:20:56;;;;;;;25.85;12.45;;;3.10;99.90;;;;;;5066767;28;20084;-43
2022/04/30 01:23:23;;;;;;;25.67;11.63;;;3.10;99.90;;;;;;5083452;28;20071;-43
2022/04/30 01:25:50;;;;;;;22.73;11.25;;;3.10;99.90;;;;;;5067119;28;20132;-42
2022/04/30 01:28:19;;;;;;;21.00;12.18;;;3.10;99.90;;;;;;5067735;28;20111;-42
2022/04/30 01:30:45;;;;;;;21.02;11.68;;;3.10;99.90;;;;;;5066433;28;20083;-42
2022/04/30 01:38:40;;;;;;;19.45;11.57;;;3.10;99.90;;;;;;5067775;28;20562;-42
2022/04/30 01:41:06;;;;;;;23.67;12.93;;;3.10;99.90;;;;;;5072540;28;20048;-43
2022/04/30 01:43:33;;;;;;;20.60;12.75;;;3.00;99.90;;;;;;5072680;28;20071;-42
2022/04/30 01:46:00;;;;;;;26.77;11.90;;;3.10;99.90;;;;;;5072037;28;20146;-43
2022/04/30 01:48:26;;;;;;;27.17;13.35;;;3.10;99.90;;;;;;5071754;28;20044;-42
2022/04/30 01:50:52;;;;;;;25.73;13.35;;;3.10;99.90;;;;;;5071423;28;20045;-43
2022/04/30 01:53:18;;;;;;;25.13;11.52;;;3.10;99.90;;;;;;5072061;28;20041;-42
2022/04/30 01:55:44;;;;;;;21.48;11.60;;;3.10;99.90;;;;;;5071814;28;20502;-42
2022/04/30 01:58:11;;;;;;;24.00;12.23;;;3.20;99.90;;;;;;5071863;28;20154;-42
2022/04/30 02:00:36;;;;;;;25.00;11.32;;;3.20;99.90;;;;;;5071306;28;20076;-43
2022/04/30 02:03:06;;;;;;;23.70;12.02;;;3.20;99.90;;;;;;5071558;28;20666;-42
2022/04/30 02:05:32;;;;;;;22.63;12.50;;;3.30;99.90;;;;;;5071095;28;20044;-42
2022/04/30 02:08:10;;;;;;;21.52;12.57;;;3.30;99.90;;;;;;5071183;28;20115;-42
2022/04/30 02:10:37;;;;;;;24.50;12.55;;;3.30;99.90;;;;;;5070892;28;20036;-42
2022/04/30 02:13:06;;;;;;;24.30;11.63;;;3.30;99.90;;;;;;5071307;28;20051;-43
2022/04/30 02:15:34;;;;;;;24.23;12.20;;;3.30;99.90;;;;;;5071443;28;20110;-42
2022/04/30 02:18:02;;;;;;;20.90;11.80;;;3.20;99.90;;;;;;5071451;28;20501;-42
2022/04/30 02:20:29;;;;;;;22.58;11.48;;;3.30;99.90;;;;;;5071661;28;20044;-43
2022/04/30 02:23:01;;;;;;;27.70;12.15;;;3.30;99.90;;;;;;5071679;28;20040;-42
2022/04/30 02:25:28;;;;;;;19.83;11.45;;;3.30;99.90;;;;;;5071597;28;20471;-43
2022/04/30 02:27:56;;;;;;;23.58;11.35;;;3.30;99.90;;;;;;5071844;28;20047;-42
2022/04/30 02:30:23;;;;;;;24.38;12.13;;;3.30;99.90;;;;;;5071186;28;20037;-42
2022/04/30 02:32:50;;;;;;;27.60;11.98;;;3.40;99.90;;;;;;5070440;28;20056;-42
2022/04/30 02:35:19;;;;;;;27.58;11.45;;;3.40;99.90;;;;;;5071273;28;20048;-42
2022/04/30 02:37:48;;;;;;;20.73;11.25;;;3.40;99.90;;;;;;5070787;28;20056;-42
2022/04/30 02:40:17;;;;;;;20.80;12.02;;;3.30;99.90;;;;;;5069593;28;20154;-43
2022/04/30 02:42:44;;;;;;;18.35;10.77;;;3.30;99.90;;;;;;5071312;28;20119;-42
2022/04/30 02:45:12;;;;;;;21.98;12.32;;;3.30;99.90;;;;;;5071117;28;20052;-43
2022/04/30 02:47:38;;;;;;;24.20;11.27;;;3.10;99.90;;;;;;5071457;28;20048;-42
2022/04/30 02:50:10;;;;;;;25.92;11.05;;;3.30;99.90;;;;;;5070780;28;20043;-43
2022/04/30 02:52:36;;;;;;;22.38;10.85;;;3.30;99.90;;;;;;5071281;28;20044;-42
2022/04/30 02:55:04;;;;;;;23.27;10.95;;;3.70;99.90;;;;;;5070743;28;20044;-42
2022/04/30 02:57:39;;;;;;;21.27;10.82;;;3.30;99.90;;;;;;5070661;28;20047;-42
2022/04/30 03:00:06;;;;;;;21.90;11.10;;;3.20;99.90;;;;;;5070375;28;20115;-42
2022/04/30 03:02:32;;;;;;;20.70;11.40;;;3.30;99.90;;;;;;5069813;28;20063;-43
2022/04/30 03:04:57;;;;;;;19.95;10.85;;;3.30;99.90;;;;;;5070525;28;20395;-44
2022/04/30 03:07:24;;;;;;;21.60;10.88;;;3.20;99.90;;;;;;5070829;28;20049;-42
2022/04/30 03:09:50;;;;;;;25.17;11.05;;;3.20;99.90;;;;;;5070853;28;20055;-42
2022/04/30 03:12:17;;;;;;;18.13;11.13;;;3.20;99.90;;;;;;5070609;28;20383;-42
2022/04/30 03:14:43;;;;;;;29.75;12.43;;;3.30;99.90;;;;;;5070710;28;20113;-42
2022/04/30 03:22:38;;;;;;;23.92;11.52;;;3.20;99.90;;;;;;5070638;28;20732;-43
2022/04/30 03:25:06;;;;;;;18.52;11.48;;;3.30;99.90;;;;;;5070383;28;20135;-43
2022/04/30 03:27:32;;;;;;;28.40;12.02;;;3.30;99.90;;;;;;5070458;28;20080;-42
2022/04/30 03:29:58;;;;;;;22.08;11.05;;;3.20;99.90;;;;;;5070243;28;20105;-42
2022/04/30 03:32:24;;;;;;;23.13;10.93;;;3.20;99.90;;;;;;5069492;28;20052;-44
2022/04/30 03:34:51;;;;;;;21.73;11.35;;;3.20;99.90;;;;;;5070380;28;20041;-42
2022/04/30 03:37:18;;;;;;;18.55;10.15;;;3.20;99.90;;;;;;5069279;28;20463;-44
2022/04/30 03:39:43;;;;;;;20.33;11.05;;;3.20;99.90;;;;;;5069362;28;20498;-43
2022/04/30 03:42:09;;;;;;;25.30;10.43;;;3.00;99.90;;;;;;5069737;28;20043;-42
2022/04/30 03:44:35;;;;;;;26.20;12.13;;;3.10;99.90;;;;;;5069529;28;20048;-42
2022/04/30 03:47:00;;;;;;;21.85;10.73;;;3.10;99.90;;;;;;5068806;28;20288;-42
2022/04/30 03:49:26;;;;;;;24.52;12.77;;;2.80;99.90;;;;;;5069400;28;20044;-46
2022/04/30 03:51:54;;;;;;;21.40;11.13;;;3.00;99.90;;;;;;5069279;28;20399;-46
2022/04/30 03:54:20;;;;;;;23.02;11.07;;;3.10;99.90;;;;;;5068869;28;20048;-43
2022/04/30 03:56:46;;;;;;;19.08;10.90;;;3.00;99.90;;;;;;5069363;28;20403;-43
2022/04/30 03:59:12;;;;;;;19.33;10.77;;;3.00;99.90;;;;;;5069115;28;20048;-44
2022/04/30 04:01:38;;;;;;;17.13;9.88;;;3.00;99.90;;;;;;5068924;28;20048;-42
2022/04/30 04:04:04;;;;;;;17.60;9.95;;;2.80;99.90;;;;;;5069697;28;20095;-42
2022/04/30 04:06:31;;;;;;;21.40;10.60;;;2.90;99.90;;;;;;5069623;28;20083;-43
2022/04/30 04:08:59;;;;;;;17.83;9.13;;;2.80;99.90;;;;;;5069818;28;20139;-42
2022/04/30 04:11:26;;;;;;;25.98;10.85;;;2.80;99.90;;;;;;5069279;28;20502;-43
2022/04/30 04:19:23;;;;;;;19.55;10.27;;;2.70;99.90;;;;;;5068666;28;20569;-42
2022/04/30 04:21:50;;;;;;;22.10;10.18;;;2.80;99.90;;;;;;5069089;28;20435;-42
2022/04/30 04:27:01;;;;;;;20.88;9.63;;;2.70;99.90;;;;;;5068869;28;20102;-42
2022/04/30 04:29:27;;;;;;;19.98;9.73;;;3.00;99.90;;;;;;5069130;28;20139;-42
2022/04/30 04:31:52;;;;;;;20.85;10.15;;;2.90;99.90;;;;;;5068595;28;20150;-42
2022/04/30 04:34:18;;;;;;;20.15;10.25;;;3.10;99.90;;;;;;5068775;28;20384;-42
2022/04/30 04:36:44;;;;;;;19.10;11.00;;;3.20;99.90;;;;;;5069058;28;20608;-43
2022/04/30 04:39:14;;;;;;;26.50;11.18;;;3.20;99.90;;;;;;5068963;28;20116;-42
2022/04/30 04:41:44;;;;;;;22.33;10.15;;;3.20;99.90;;;;;;5069392;28;20425;-43
2022/04/30 04:44:10;;;;;;;15.90;9.98;;;3.30;99.90;;;;;;5069138;28;20075;-42
2022/04/30 04:46:38;;;;;;;19.45;10.30;;;3.40;99.90;;;;;;5067534;28;20106;-43
2022/04/30 04:49:04;;;;;;;21.77;10.80;;;3.50;99.90;;;;;;5068639;28;20080;-42
2022/04/30 04:51:30;;;;;;;19.75;11.00;;;3.40;99.90;;;;;;5068922;28;20040;-42
2022/04/30 04:53:56;;;;;;;19.75;9.98;;;3.70;99.90;;;;;;5069150;28;20817;-43
2022/04/30 04:56:22;;;;;;;15.93;10.02;;;3.80;99.90;;;;;;5069073;28;20040;-43
2022/04/30 04:58:48;;;;;;;21.80;10.63;;;3.90;99.90;;;;;;5068750;28;20487;-42
2022/04/30 05:01:14;;;;;;;21.58;10.75;;;4.00;99.90;;;;;;5068300;28;20048;-42
2022/04/30 05:03:40;;;;;;;15.07;9.70;;;4.00;99.90;;;;;;5068445;28;20051;-42
2022/04/30 05:06:06;;;;;;;17.10;10.20;;;4.20;99.90;;;;;;5067981;28;20048;-47
2022/04/30 05:08:32;;;;;;;11.95;8.55;;;4.30;99.90;;;;;;5068170;28;20410;-44
2022/04/30 05:10:57;;;;;;;18.30;9.73;;;4.30;99.90;;;;;;5068727;28;20041;-43
2022/04/30 05:13:23;;;;;;;12.43;8.75;;;4.30;99.90;;;;;;5068375;28;20040;-43
2022/04/30 05:15:49;;;;;;;19.98;11.30;;;4.70;99.90;;;;;;5068755;28;20052;-43
2022/04/30 05:18:14;;;;;;;17.08;9.40;;;4.90;99.90;;;;;;5068108;28;20036;-43
2022/04/30 05:20:40;;;;;;;17.20;9.15;;;5.10;99.90;;;;;;5068274;28;20086;-43
2022/04/30 05:23:06;;;;;;;12.40;8.57;;;5.30;99.90;;;;;;5068621;28;20044;-43
2022/04/30 05:25:32;;;;;;;16.92;10.18;;;5.50;99.90;;;;;;5067873;28;20094;-43
2022/04/30 05:27:57;;;;;;;12.02;7.88;;;5.70;99.90;;;;;;5068298;28;20047;-42
2022/04/30 05:30:24;;;;;;;15.48;9.07;;;5.80;99.90;;;;;;5067482;28;20044;-42
2022/04/30 05:32:50;;;;;;;16.45;8.02;;;6.80;99.90;;;;;;5068052;28;20068;-43
2022/04/30 05:35:16;;;;;;;17.58;10.68;;;5.90;99.90;;;;;;5068539;28;20052;-43
2022/04/30 05:37:42;;;;;;;14.90;8.65;;;6.70;99.90;;;;;;5068032;28;20105;-43
2022/04/30 05:40:08;;;;;;;17.50;10.88;;;6.00;99.90;;;;;;5068482;28;20052;-42
2022/04/30 05:42:34;;;;;;;17.80;8.82;;;6.10;99.90;;;;;;5068148;28;20422;-42
2022/04/30 05:44:59;;;;;;;13.02;9.00;;;6.20;99.90;;;;;;5068460;28;20101;-43
2022/04/30 05:47:25;;;;;;;13.88;8.85;;;6.20;99.90;;;;;;5067716;28;20036;-43
2022/04/30 05:49:51;;;;;;;13.18;8.05;;;6.60;99.90;;;;;;5067971;28;20134;-42
2022/04/30 05:52:19;;;;;;;13.18;9.20;;;6.40;99.90;;;;;;5068104;28;20083;-44
2022/04/30 05:54:46;;;;;;;14.43;9.50;;;6.50;99.90;;;;;;5066823;28;20049;-43
2022/04/30 05:57:11;;;;;;;15.30;8.82;;;6.70;99.90;;;;;;5066440;28;20388;-43
2022/04/30 05:59:37;;;;;;;11.48;7.70;;;7.30;99.90;;;;;;5066480;28;20067;-43
2022/04/30 06:02:03;;;;;;;15.70;8.43;;;7.10;99.90;;;;;;5068068;28;20076;-44
2022/04/30 06:04:29;;;;;;;12.95;8.25;;;7.60;99.90;;;;;;5067546;28;20051;-44
2022/04/30 06:06:55;;;;;;;13.00;8.43;;;7.90;99.90;;;;;;5067843;28;20049;-42
2022/04/30 06:09:21;;;;;;;12.70;7.63;;;8.30;99.90;;;;;;5067372;28;20081;-43
2022/04/30 06:11:47;;;;;;;12.55;7.88;;;9.00;99.90;;;;;;5068164;28;20041;-43
2022/04/30 06:14:13;;;;;;;9.90;7.43;;;9.60;99.90;;;;;;5067972;28;20071;-44
2022/04/30 06:16:39;;;;;;;11.13;6.85;;;10.60;99.90;;;;;;5067919;28;20044;-43
2022/04/30 06:19:04;;;;;;;8.52;6.20;;;10.40;99.90;;;;;;5067860;28;20478;-43
2022/04/30 06:21:31;;;;;;;9.48;5.38;;;10.80;99.90;;;;;;5067340;28;20051;-43
2022/04/30 06:23:57;;;;;;;12.80;6.28;;;11.60;99.90;;;;;;5066911;28;20052;-43
2022/04/30 06:26:22;;;;;;;8.30;5.13;;;11.70;99.90;;;;;;5069777;28;20048;-43
2022/04/30 06:28:48;;;;;;;8.80;5.30;;;12.00;99.90;;;;;;5071480;28;20079;-45
2022/04/30 06:31:14;;;;;;;9.95;5.25;;;12.40;99.90;;;;;;5070929;28;20482;-44
2022/04/30 06:33:39;;;;;;;11.48;5.70;;;12.60;99.90;;;;;;5070404;28;20058;-43
2022/04/30 06:36:05;;;;;;;9.25;5.00;;;13.10;99.90;;;;;;5070930;28;20040;-45
2022/04/30 06:38:31;;;;;;;10.45;5.22;;;13.40;99.90;;;;;;5070501;28;20060;-44
2022/04/30 06:40:58;;;;;;;10.23;5.00;;;14.00;99.90;;;;;;5071065;28;20141;-43
2022/04/30 06:43:23;;;;;;;10.27;5.38;;;14.30;99.90;;;;;;5070203;28;20071;-45
2022/04/30 06:45:49;;;;;;;9.85;5.00;;;14.70;99.90;;;;;;5071325;28;20079;-43
2022/04/30 06:48:14;;;;;;;7.95;3.72;;;15.30;99.90;;;;;;5070289;28;20032;-44
2022/04/30 06:50:40;;;;;;;13.20;4.82;;;15.90;99.90;;;;;;5070443;28;20573;-44
2022/04/30 06:58:43;;;;;;;5.25;2.60;;;17.70;97.20;;;;;;5070616;28;20075;-46
2022/04/30 07:01:30;;;;;;;7.35;2.53;;;17.90;95.10;;;;;;5070541;28;20536;-44
2022/04/30 07:04:02;;;;;;;6.68;2.53;;;17.80;93.30;;;;;;5070581;28;20080;-44
2022/04/30 07:06:29;;;;;;;7.07;2.28;;;17.80;92.20;;;;;;5070369;28;20819;-44
2022/04/30 07:08:55;;;;;;;5.03;1.80;;;17.90;91.50;;;;;;5070638;28;20047;-44
2022/04/30 07:11:21;;;;;;;8.80;2.75;;;18.50;90.70;;;;;;5070583;28;20044;-44
2022/04/30 07:13:47;;;;;;;9.05;2.08;;;18.70;89.40;;;;;;5069875;28;20067;-44
2022/04/30 07:16:12;;;;;;;7.60;2.13;;;18.90;86.70;;;;;;5070130;28;20123;-44
2022/04/30 07:18:38;;;;;;;5.05;1.83;;;18.90;82.10;;;;;;5069906;28;20041;-44
2022/04/30 07:21:04;;;;;;;6.88;2.20;;;18.90;81.90;;;;;;5070113;28;20044;-44
2022/04/30 07:23:30;;;;;;;8.70;2.20;;;18.00;81.40;;;;;;5069223;28;20098;-44
2022/04/30 07:25:56;;;;;;;3.60;1.83;;;18.30;80.70;;;;;;5070057;28;20060;-44
2022/04/30 07:28:26;;;;;;;5.70;2.13;;;18.10;82.10;;;;;;5070063;28;20113;-44
2022/04/30 07:30:52;;;;;;;6.85;2.10;;;17.70;81.30;;;;;;5069759;28;20055;-44
2022/04/30 07:33:18;;;;;;;7.35;2.33;;;17.40;80.90;;;;;;5069569;28;20044;-44
2022/04/30 07:35:44;;;;;;;5.05;2.40;;;17.10;80.80;;;;;;5069525;28;20084;-44
2022/04/30 07:38:09;;;;;;;4.47;2.38;;;16.80;81.10;;;;;;5069625;28;20092;-43
2022/04/30 07:40:36;;;;;;;6.05;2.63;;;16.70;81.30;;;;;;5069756;28;20076;-44
2022/04/30 07:43:03;;;;;;;4.57;2.08;;;16.50;81.90;;;;;;5069613;28;20431;-44
2022/04/30 07:45:28;;;;;;;5.00;2.50;;;16.30;82.10;;;;;;5069262;28;20747;-43
2022/04/30 07:47:55;;;;;;;6.57;2.55;;;16.20;81.90;;;;;;5069317;28;20052;-43
2022/04/30 07:50:22;;;;;;;7.03;2.10;;;15.90;81.60;;;;;;5069394;28;20388;-44
2022/04/30 07:52:48;;;;;;;7.22;2.30;;;15.60;82.40;;;;;;5068955;28;20040;-44
2022/04/30 07:55:15;;;;;;;5.35;2.58;;;15.40;83.10;;;;;;5069193;28;20040;-45
2022/04/30 07:57:40;;;;;;;6.18;2.25;;;15.40;83.10;;;;;;5068898;28;20047;-43
2022/04/30 08:00:07;;;;;;;6.60;2.40;;;15.30;84.00;;;;;;5069675;28;20044;-43
2022/04/30 08:02:33;;;;;;;7.03;2.63;;;15.30;84.30;;;;;;5069636;28;20127;-43
2022/04/30 08:05:01;;;;;;;7.35;2.47;;;15.20;84.10;;;;;;5069494;28;20051;-44
2022/04/30 08:07:27;;;;;;;8.52;2.95;;;15.10;84.60;;;;;;5069475;28;20044;-43
2022/04/30 08:09:52;;;;;;;5.20;2.55;;;15.20;85.10;;;;;;5069883;28;20600;-43
2022/04/30 08:12:19;;;;;;;7.63;2.95;;;15.30;85.40;;;;;;5070193;28;20453;-44
2022/04/30 08:14:45;;;;;;;6.57;2.60;;;15.40;85.10;;;;;;5069937;28;20048;-44
2022/04/30 08:17:13;;;;;;;7.55;2.67;;;15.40;84.40;;;;;;5069363;28;20103;-44
2022/04/30 08:19:39;;;;;;;4.68;2.78;;;15.20;84.40;;;;;;5069035;28;20144;-43
2022/04/30 08:22:05;;;;;;;10.05;3.10;;;15.50;84.90;;;;;;5068822;28;20048;-43
2022/04/30 08:24:30;;;;;;;18.02;2.78;;;15.60;84.30;;;;;;5068743;28;20048;-44
2022/04/30 08:26:59;;;;;;;6.80;3.10;;;15.80;83.40;;;;;;5069044;28;20246;-43
2022/04/30 08:29:28;;;;;;;9.70;3.00;;;16.00;82.70;;;;;;5069329;28;20040;-44
2022/04/30 08:31:54;;;;;;;5.68;3.00;;;16.30;82.00;;;;;;5069077;28;20037;-44
2022/04/30 08:34:20;;;;;;;5.97;2.72;;;16.60;80.60;;;;;;5068919;28;20080;-45
2022/04/30 08:36:46;;;;;;;8.93;2.65;;;17.10;80.30;;;;;;5069028;28;20052;-44
2022/04/30 08:39:12;;;;;;;6.05;2.47;;;17.80;79.00;;;;;;5068642;28;20064;-45
2022/04/30 08:41:43;;;;;;;9.10;2.70;;;18.20;77.40;;;;;;5068711;28;20151;-45
2022/04/30 08:44:16;;;;;;;6.63;2.70;;;18.60;75.40;;;;;;5069263;28;20047;-45
2022/04/30 08:46:43;;;;;;;4.50;2.50;;;18.80;74.60;;;;;;5068234;28;20091;-43
2022/04/30 08:49:10;;;;;;;3.53;2.33;;;19.00;74.30;;;;;;5067831;28;20028;-44
2022/04/30 08:51:36;;;;;;;6.60;2.35;;;19.40;73.70;;;;;;5067561;28;20487;-44
2022/04/30 08:54:02;;;;;;;6.90;2.38;;;20.00;71.80;;;;;;5067939;28;20064;-44
2022/04/30 08:56:28;;;;;;;5.43;2.60;;;20.90;68.80;;;;;;5067321;28;20218;-44
2022/04/30 08:59:05;;;;;;;5.32;1.98;;;21.40;65.60;;;;;;5068300;28;20587;-45
2022/04/30 09:01:47;;;;;;;2.67;1.60;;;21.30;62.00;;;;;;5068454;28;20475;-44
2022/04/30 09:04:13;;;;;;;4.25;2.17;;;20.90;61.90;;;;;;5068532;28;20051;-44
2022/04/30 09:06:47;;;;;;;4.00;2.15;;;20.40;63.80;;;;;;5068616;28;20056;-44
2022/04/30 09:09:28;;;;;;;5.30;2.50;;;20.00;63.10;;;;;;5068281;28;20876;-44
2022/04/30 09:11:57;;;;;;;3.47;1.90;;;19.80;64.00;;;;;;5068445;28;20048;-45
2022/04/30 09:14:29;;;;;;;5.13;2.67;;;19.80;64.90;;;;;;5068481;28;20119;-44
2022/04/30 09:17:05;;;;;;;5.20;2.67;;;19.90;64.00;;;;;;5068523;28;20201;-44
2022/04/30 09:19:49;;;;;;;3.85;1.75;;;20.40;62.50;;;;;;5068659;28;20117;-46
2022/04/30 09:22:15;;;;;;;4.75;1.70;;;21.40;62.90;;;;;;5068109;28;20066;-45
2022/04/30 09:24:49;;;;;;;3.97;1.73;;;21.70;61.80;;;;;;5068399;28;20475;-44
2022/04/30 09:27:15;;;;;;;7.07;1.92;;;22.70;60.30;;;;;;5067988;28;20690;-44
2022/04/30 09:29:41;;;;;;;4.78;2.05;;;21.70;57.80;;;;;;5067879;28;20263;-45
2022/04/30 09:32:07;;;;;;;5.55;2.17;;;21.90;57.50;;;;;;5068026;28;20040;-45
2022/04/30 09:37:41;;;;;;;7.82;2.10;;;24.50;57.90;;;;;;5068054;28;20190;-44
2022/04/30 09:40:16;;;;;;;4.35;1.60;;;27.30;56.80;;;;;;5068000;28;20111;-46
2022/04/30 09:42:46;;;;;;;5.13;1.90;;;29.10;51.70;;;;;;5066709;28;20056;-46
2022/04/30 09:45:32;;;;;;;4.32;1.70;;;28.40;48.00;;;;;;5068274;28;20090;-49
2022/04/30 09:48:00;;;;;;;5.13;1.70;;;27.30;47.80;;;;;;5068389;28;20082;-48
2022/04/30 09:56:14;;;;;;;3.38;1.85;;;24.40;51.30;;;;;;5068012;28;20123;-44
2022/04/30 09:58:42;;;;;;;6.00;2.03;;;23.50;50.60;;;;;;5068367;28;20044;-44
2022/04/30 10:01:11;;;;;;;5.60;2.20;;;22.70;51.60;;;;;;5070623;28;20051;-44
2022/04/30 10:03:39;;;;;;;4.85;2.17;;;22.10;57.90;;;;;;5072077;28;20408;-44
2022/04/30 10:06:06;;;;;;;5.47;2.78;;;21.50;64.20;;;;;;5070969;28;20475;-46
2022/04/30 10:08:37;;;;;;;3.65;1.70;;;20.90;79.10;;;;;;5071726;28;20409;-44
2022/04/30 10:11:15;;;;;;;6.10;2.30;;;20.20;73.20;;;;;;5071413;28;20040;-44
2022/04/30 10:13:49;;;;;;;5.75;2.10;;;19.60;70.30;;;;;;5071455;28;20047;-44
2022/04/30 10:16:25;;;;;;;4.82;2.00;;;18.60;56.90;;;;;;5071096;28;20086;-45
2022/04/30 10:18:58;;;;;;;8.32;3.08;;;18.60;57.20;;;;;;5071798;28;20245;-44
2022/04/30 10:21:24;;;;;;;5.75;2.30;;;18.30;58.30;;;;;;5071493;28;20483;-44
2022/04/30 10:24:00;;;;;;;3.38;2.35;;;18.00;58.70;;;;;;5071962;28;20052;-45
2022/04/30 10:26:26;;;;;;;4.72;2.58;;;17.70;59.10;;;;;;5071773;28;20047;-44
2022/04/30 10:29:11;;;;;;;6.75;3.08;;;17.50;60.40;;;;;;5068335;28;20041;-52
2022/04/30 10:31:46;;;;;;;5.72;2.60;;;17.40;60.90;;;;;;5070135;28;20041;-43
2022/04/30 10:34:12;;;;;;;6.97;2.72;;;17.30;62.20;;;;;;5069302;28;20046;-48
2022/04/30 10:36:39;;;;;;;7.28;2.97;;;17.20;62.20;;;;;;5070056;28;20074;-47
2022/04/30 10:39:09;;;;;;;7.88;2.80;;;17.10;62.30;;;;;;5069857;28;20064;-44
2022/04/30 10:41:53;;;;;;;5.88;2.63;;;17.00;61.80;;;;;;5070198;28;20060;-51
2022/04/30 10:44:49;;;;;;;8.45;2.67;;;17.00;62.30;;;;;;5070988;28;20722;-45
2022/04/30 10:47:27;;;;;;;7.70;3.30;;;17.00;62.50;;;;;;5070643;28;20792;-46
2022/04/30 10:49:53;;;;;;;4.55;2.47;;;16.90;63.10;;;;;;5072088;28;20035;-44
2022/04/30 10:52:25;;;;;;;5.47;2.58;;;16.80;63.00;;;;;;5073038;28;20041;-45
2022/04/30 10:54:51;;;;;;;;;;;16.80;62.80;;;;;;5071040;28;20820;-45
2022/04/30 10:57:18;;;;;;;4.10;1.50;;;16.70;63.10;;;;;;5069810;28;19969;-46
2022/04/30 11:00:01;;;;;;;9.82;2.47;;;16.70;62.40;;;;;;5070229;28;20044;-48
2022/04/30 11:02:32;;;;;;;5.35;2.20;;;16.60;62.20;;;;;;5069708;28;20045;-46
2022/04/30 11:04:58;;;;;;;3.80;2.40;;;16.50;62.70;;;;;;5070871;28;20040;-46
2022/04/30 11:07:27;;;;;;;6.35;2.60;;;16.50;63.10;;;;;;5071599;28;20109;-47
2022/04/30 11:09:52;;;;;;;4.57;2.58;;;16.60;63.40;;;;;;5071650;28;20040;-46
2022/04/30 11:12:18;;;;;;;7.63;3.00;;;16.50;63.60;;;;;;5070083;28;20139;-47
2022/04/30 11:14:47;;;;;;;6.28;2.78;;;16.50;63.90;;;;;;5070436;28;20057;-45
2022/04/30 11:17:13;;;;;;;5.32;2.65;;;16.40;64.00;;;;;;5070584;28;20425;-46
2022/04/30 11:19:41;;;;;;;6.25;2.83;;;16.30;64.50;;;;;;5070967;28;20177;-45
2022/04/30 11:22:13;;;;;;;5.25;3.17;;;16.20;64.60;;;;;;5070263;28;20545;-46
2022/04/30 11:24:41;;;;;;;4.82;2.22;;;16.30;64.60;;;;;;5070815;28;20052;-46
2022/04/30 11:27:08;;;;;;;6.22;2.20;;;16.30;65.80;;;;;;5070488;28;20074;-45
2022/04/30 11:29:36;;;;;;;5.50;2.70;;;16.30;67.10;;;;;;5070636;28;20044;-47
2022/04/30 11:32:04;;;;;;;6.95;2.58;;;16.30;67.40;;;;;;5070019;28;20044;-45
2022/04/30 11:34:29;;;;;;;7.80;3.80;;;16.40;67.50;;;;;;5070428;28;20040;-44
2022/04/30 11:37:00;;;;;;;23.50;5.10;;;16.40;67.00;;;;;;5071087;28;20069;-44
2022/04/30 11:39:27;;;;;;;8.60;3.55;;;16.40;67.50;;;;;;5070330;28;20190;-46
2022/04/30 11:41:56;;;;;;;5.78;2.97;;;16.60;68.00;;;;;;5067439;28;20048;-44
2022/04/30 11:44:27;;;;;;;6.13;3.53;;;16.70;68.30;;;;;;5066479;28;20060;-44
2022/04/30 11:46:54;;;;;;;10.27;3.45;;;16.70;67.10;;;;;;5069165;28;20037;-43
2022/04/30 11:49:22;;;;;;;5.28;2.33;;;17.10;69.40;;;;;;5068628;28;20517;-46
2022/04/30 11:51:49;;;;;;;6.18;2.83;;;16.90;68.80;;;;;;5069283;28;20123;-46
2022/04/30 11:54:21;;;;;;;5.80;2.78;;;16.90;68.70;;;;;;5068303;28;20639;-45
2022/04/30 11:57:02;;;;;;;6.55;2.60;;;17.00;68.70;;;;;;5069068;28;20049;-45
2022/04/30 11:59:34;;;;;;;6.10;2.40;;;17.00;66.80;;;;;;5068619;28;20558;-44
2022/04/30 12:02:08;;;;;;;4.95;2.38;;;17.00;68.60;;;;;;5069001;28;20414;-48
2022/04/30 12:04:42;;;;;;;5.60;3.38;;;17.70;68.20;;;;;;5069788;28;20132;-50
2022/04/30 12:07:10;;;;;;;5.80;2.80;;;16.60;68.00;;;;;;5069802;28;20075;-47
2022/04/30 12:09:37;;;;;;;5.03;2.33;;;16.60;69.50;;;;;;5068440;28;20076;-49
2022/04/30 12:12:18;;;;;;;5.38;2.08;;;16.50;69.30;;;;;;5069464;28;20040;-47
2022/04/30 12:14:49;;;;;;;3.38;1.75;;;16.50;66.00;;;;;;5069752;28;20110;-47
2022/04/30 12:17:16;;;;;;;4.47;1.58;;;16.40;67.40;;;;;;5069447;28;20033;-47
2022/04/30 12:25:20;;;;;;;3.05;1.58;;;16.60;68.80;;;;;;5069063;28;20182;-47
2022/04/30 12:27:58;;;;;;;4.55;1.48;;;16.60;69.10;;;;;;5069091;28;20839;-47
2022/04/30 12:30:24;;;;;;;2.88;1.63;;;16.60;68.70;;;;;;5067509;28;20044;-48
2022/04/30 12:33:04;;;;;;;3.95;1.55;;;16.20;71.60;;;;;;5069285;28;20380;-49
2022/04/30 12:35:35;;;;;;;3.03;1.63;;;16.30;72.60;;;;;;5069343;28;20067;-49
2022/04/30 12:38:07;;;;;;;3.80;2.13;;;16.20;77.50;;;;;;5068877;28;20057;-47
2022/04/30 12:40:38;;;;;;;4.57;2.25;;;16.20;75.40;;;;;;5068854;28;20491;-48
2022/04/30 12:43:04;;;;;;;5.93;2.00;;;16.30;77.70;;;;;;5069279;28;20123;-48
2022/04/30 12:45:33;;;;;;;3.88;1.80;;;16.30;77.40;;;;;;5067927;28;20044;-46
2022/04/30 12:48:00;;;;;;;4.40;2.58;;;16.40;75.70;;;;;;5065448;28;20410;-43
2022/04/30 12:50:27;;;;;;;7.88;2.80;;;16.50;76.00;;;;;;5067154;28;20044;-46
2022/04/30 12:52:53;;;;;;;4.32;2.35;;;16.50;76.40;;;;;;5068478;28;20127;-46
2022/04/30 12:55:20;;;;;;;5.10;2.25;;;16.60;74.30;;;;;;5068622;28;20044;-44
2022/04/30 12:57:47;;;;;;;4.85;2.65;;;16.70;73.20;;;;;;5068868;28;20051;-45
2022/04/30 13:00:15;;;;;;;5.70;2.33;;;16.90;71.80;;;;;;5068127;28;20801;-44
2022/04/30 13:02:42;;;;;;;5.30;1.80;;;17.10;70.10;;;;;;5067918;28;20166;-45
2022/04/30 13:05:12;;;;;;;4.35;1.42;;;17.20;69.00;;;;;;5068650;28;20040;-41
2022/04/30 13:07:39;;;;;;;3.83;1.83;;;17.20;67.30;;;;;;5068058;28;20056;-42
2022/04/30 13:15:44;;;;;;;5.30;1.95;;;17.30;67.10;;;;;;5068309;28;20079;-42
2022/04/30 13:18:10;;;;;;;6.70;1.85;;;17.40;67.50;;;;;;5067933;28;20036;-44
2022/04/30 13:20:36;;;;;;;4.63;2.13;;;17.40;66.50;;;;;;5067032;28;20553;-43
2022/04/30 13:23:02;;;;;;;4.45;1.90;;;17.40;67.70;;;;;;5067390;28;20047;-41
2022/04/30 13:25:29;;;;;;;6.28;2.40;;;17.50;67.40;;;;;;5067092;28;20064;-44
2022/04/30 13:27:55;;;;;;;4.28;1.65;;;17.50;68.40;;;;;;5067001;28;20055;-42
2022/04/30 13:30:22;;;;;;;5.13;1.60;;;17.40;69.00;;;;;;5067270;28;20048;-42
2022/04/30 13:33:04;;;;;;;2.83;1.52;;;17.40;68.30;;;;;;5067206;28;20041;-44